Terminal Aerodrome Forecast
Issued by NWS

Home | Current Version | Previous Version | Text Only | Print | Product List | Glossary On
Versions: 1 2 3 4 5 6 7 8 9 10 11 12 13 14 15 16 17 18 19 20 21 22 23 24 25 26 27 28 29 30
000
FTAK31 PANC 260531
TAFAVD
TAF
PAVD 260531Z 2606/2706 25015KT P6SM VCSH OVC045
      TEMPO 2606/2609 -RA BKN035
     FM262000 25010KT P6SM BKN060
     FM262300 26018KT P6SM BKN060
     FM270500 26008KT P6SM BKN060
      AMD LTD TO CLD VIS AND WIND=

USA.gov is the U.S. government's official web portal to all federal, state and local government web resources and services.